createdAt,value
2022-09-17T00:01:33.533Z,5.70
2022-09-17T00:04:04.815Z,6.20
2022-09-17T00:06:35.462Z,6.20
2022-09-17T00:11:37.031Z,5.50
2022-09-17T00:14:07.322Z,5.00
2022-09-17T00:16:41.466Z,4.80
2022-09-17T00:19:15.384Z,5.40
2022-09-17T00:21:44.095Z,4.20
2022-09-17T00:24:14.283Z,5.00
2022-09-17T00:26:42.919Z,5.20
2022-09-17T00:29:11.554Z,5.40
2022-09-17T00:31:40.430Z,5.20
2022-09-17T00:34:09.315Z,5.10
2022-09-17T00:36:38.950Z,5.60
2022-09-17T00:39:09.264Z,4.90
2022-09-17T00:41:39.181Z,4.80
2022-09-17T00:45:01.631Z,4.30
2022-09-17T00:50:32.381Z,5.20
2022-09-17T00:53:12.637Z,5.40
2022-09-17T00:55:45.726Z,5.40
2022-09-17T00:58:16.973Z,5.40
2022-09-17T01:00:47.164Z,5.20
2022-09-17T01:03:15.471Z,5.20
2022-09-17T01:06:11.086Z,5.40
2022-09-17T01:08:52.470Z,5.10
2022-09-17T01:11:20.439Z,5.40
2022-09-17T01:13:54.654Z,5.90
2022-09-17T01:16:47.916Z,5.80
2022-09-17T01:19:37.508Z,5.80
2022-09-17T01:22:41.096Z,5.70
2022-09-17T01:25:12.035Z,5.70
2022-09-17T01:28:17.586Z,5.60
2022-09-17T01:30:57.969Z,5.20
2022-09-17T01:33:38.297Z,6.40
2022-09-17T01:36:12.016Z,6.30
2022-09-17T01:39:07.831Z,6.40
2022-09-17T01:41:42.249Z,6.90
2022-09-17T01:44:48.619Z,6.40
2022-09-17T01:47:37.328Z,5.80
2022-09-17T01:50:12.716Z,6.20
2022-09-17T01:52:44.372Z,6.60
2022-09-17T01:55:16.438Z,6.50
2022-09-17T01:58:03.248Z,6.20
2022-09-17T02:00:31.992Z,5.90
2022-09-17T02:03:32.860Z,6.20
2022-09-17T02:06:12.211Z,5.90
2022-09-17T02:08:47.145Z,6.60
2022-09-17T02:11:17.470Z,5.80
2022-09-17T02:13:50.761Z,5.70
2022-09-17T02:16:37.559Z,5.50
2022-09-17T02:19:31.860Z,5.60
2022-09-17T02:22:06.996Z,5.80
2022-09-17T02:24:47.048Z,5.80
2022-09-17T02:27:37.648Z,6.50
2022-09-17T02:30:07.049Z,5.50
2022-09-17T02:32:35.222Z,5.50
2022-09-17T02:35:03.703Z,4.60
2022-09-17T02:37:31.775Z,5.30
2022-09-17T02:40:00.733Z,5.50
2022-09-17T02:42:47.579Z,5.10
2022-09-17T02:46:01.321Z,5.10
2022-09-17T02:48:29.290Z,5.30
2022-09-17T02:51:16.921Z,5.00
2022-09-17T02:54:02.859Z,5.10
2022-09-17T02:56:39.789Z,4.70
2022-09-17T02:59:15.950Z,5.10
2022-09-17T03:01:51.731Z,5.40
2022-09-17T03:04:22.743Z,6.20
2022-09-17T03:06:52.581Z,5.90
2022-09-17T03:09:20.730Z,7.00
2022-09-17T03:11:49.108Z,6.40
2022-09-17T03:14:17.281Z,5.70
2022-09-17T03:16:45.352Z,5.60
2022-09-17T03:19:13.526Z,5.40
2022-09-17T03:21:41.702Z,5.20
2022-09-17T03:24:11.821Z,4.80
2022-09-17T03:26:39.890Z,5.30
2022-09-17T03:29:07.963Z,6.10
2022-09-17T03:31:36.166Z,5.60
2022-09-17T03:34:04.413Z,5.20
2022-09-17T03:36:32.483Z,5.70
2022-09-17T03:39:00.768Z,5.20
2022-09-17T03:41:28.914Z,5.70
2022-09-17T03:43:57.108Z,5.80
2022-09-17T03:46:25.764Z,5.30
2022-09-17T03:48:53.976Z,5.80
2022-09-17T03:51:22.345Z,5.80
2022-09-17T03:53:50.525Z,6.60
2022-09-17T03:56:18.927Z,6.60
2022-09-17T03:58:46.964Z,7.30
2022-09-17T04:01:15.132Z,7.70
2022-09-17T04:03:43.623Z,6.60
2022-09-17T04:06:11.713Z,7.20
2022-09-17T04:08:39.871Z,6.40
2022-09-17T04:11:08.145Z,6.30
2022-09-17T04:13:36.728Z,7.00
2022-09-17T04:16:05.256Z,6.50
2022-09-17T04:18:34.201Z,6.20
2022-09-17T04:21:02.378Z,6.40
2022-09-17T04:23:30.447Z,6.30
2022-09-17T04:25:58.620Z,6.70
2022-09-17T04:28:26.798Z,6.30
2022-09-17T04:30:54.889Z,6.40
2022-09-17T04:33:23.298Z,5.90
2022-09-17T04:35:51.418Z,6.30
2022-09-17T04:38:20.924Z,7.70
2022-09-17T04:40:49.406Z,6.20
2022-09-17T04:43:18.090Z,6.20
2022-09-17T04:45:47.904Z,6.30
2022-09-17T04:48:15.976Z,6.20
2022-09-17T04:50:44.352Z,6.10
2022-09-17T04:53:13.347Z,6.60
2022-09-17T04:55:42.979Z,6.60
2022-09-17T04:58:11.228Z,6.70
2022-09-17T05:00:39.750Z,7.10
2022-09-17T05:03:08.191Z,7.00
2022-09-17T05:05:36.268Z,7.40
2022-09-17T05:08:04.438Z,6.80
2022-09-17T05:10:32.506Z,6.90
2022-09-17T05:13:00.885Z,7.40
2022-09-17T05:15:29.059Z,6.40
2022-09-17T05:17:57.437Z,7.80
2022-09-17T05:20:25.716Z,6.90
2022-09-17T05:22:53.888Z,7.60
2022-09-17T05:25:26.177Z,7.10
2022-09-17T05:27:56.483Z,6.60
2022-09-17T05:30:24.756Z,6.00
2022-09-17T05:33:04.687Z,6.40
2022-09-17T05:35:34.012Z,5.30
2022-09-17T05:38:05.255Z,6.10
2022-09-17T05:40:34.088Z,5.30
2022-09-17T05:43:04.468Z,6.70
2022-09-17T05:45:34.690Z,6.20
2022-09-17T05:48:04.532Z,5.50
2022-09-17T05:50:33.298Z,5.90
2022-09-17T05:53:10.577Z,5.20
2022-09-17T05:55:39.661Z,4.70
2022-09-17T05:58:19.008Z,4.90
2022-09-17T06:00:49.017Z,5.20
2022-09-17T06:03:19.504Z,5.40
2022-09-17T06:05:56.637Z,5.50
2022-09-17T06:08:26.756Z,5.60
2022-09-17T06:10:58.959Z,5.40
2022-09-17T06:13:31.202Z,4.70
2022-09-17T06:15:59.820Z,4.70
2022-09-17T06:18:29.488Z,4.50
2022-09-17T06:21:00.425Z,4.60
2022-09-17T06:23:35.485Z,4.70
2022-09-17T06:26:05.273Z,4.70
2022-09-17T06:28:36.738Z,4.80
2022-09-17T06:31:09.670Z,5.00
2022-09-17T06:33:38.395Z,4.30
2022-09-17T06:36:14.595Z,3.90
2022-09-17T06:38:43.552Z,4.60
2022-09-17T06:41:12.850Z,4.20
2022-09-17T06:43:40.922Z,4.20
2022-09-17T06:46:10.566Z,4.20
2022-09-17T06:48:39.388Z,4.30
2022-09-17T06:51:10.562Z,4.10
2022-09-17T06:53:39.622Z,4.20
2022-09-17T06:56:09.576Z,4.40
2022-09-17T06:58:38.819Z,4.30
2022-09-17T07:01:07.039Z,3.30
2022-09-17T07:03:35.836Z,3.20
2022-09-17T07:06:10.254Z,3.70
2022-09-17T07:08:39.656Z,3.70
2022-09-17T07:11:08.546Z,3.80
2022-09-17T07:13:36.722Z,3.60
2022-09-17T07:16:06.658Z,5.00
2022-09-17T07:18:35.015Z,3.60
2022-09-17T07:21:06.205Z,4.80
2022-09-17T07:23:36.279Z,3.20
2022-09-17T07:26:12.643Z,3.40
2022-09-17T07:28:42.049Z,2.80
2022-09-17T07:31:16.045Z,3.20
2022-09-17T07:33:45.954Z,3.10
2022-09-17T07:36:18.239Z,2.90
2022-09-17T07:38:47.372Z,3.30
2022-09-17T07:41:17.557Z,2.90
2022-09-17T07:43:46.242Z,3.10
2022-09-17T07:46:17.440Z,2.90
2022-09-17T07:48:47.087Z,2.80
2022-09-17T07:51:17.321Z,2.60
2022-09-17T07:53:46.791Z,2.60
2022-09-17T07:56:15.004Z,2.40
2022-09-17T07:58:44.092Z,2.90
2022-09-17T08:01:13.802Z,2.20
2022-09-17T08:03:41.996Z,2.40
2022-09-17T08:06:11.382Z,2.70
2022-09-17T08:08:39.986Z,2.40
2022-09-17T08:11:11.722Z,2.10
2022-09-17T08:16:13.523Z,2.60
2022-09-17T08:18:43.922Z,2.10
2022-09-17T08:21:18.531Z,2.40
2022-09-17T08:23:46.919Z,2.50
2022-09-17T08:26:18.359Z,2.60
2022-09-17T08:28:48.684Z,2.70
2022-09-17T08:31:19.490Z,2.90
2022-09-17T08:33:48.118Z,2.70
2022-09-17T08:36:18.944Z,2.70
2022-09-17T08:38:47.186Z,2.50
2022-09-17T08:41:29.532Z,3.00
2022-09-17T08:44:40.922Z,2.80
2022-09-17T08:47:21.497Z,2.50
2022-09-17T08:49:56.115Z,2.30
2022-09-17T08:52:42.513Z,2.90
2022-09-17T08:55:25.945Z,2.30
2022-09-17T08:57:54.142Z,2.50
2022-09-17T09:00:24.169Z,2.90
2022-09-17T09:03:20.868Z,2.80
2022-09-17T09:05:54.099Z,2.90
2022-09-17T09:08:37.088Z,2.70
2022-09-17T09:11:11.540Z,2.20
2022-09-17T09:13:44.717Z,2.30
2022-09-17T09:16:26.562Z,2.10
2022-09-17T09:18:58.998Z,2.20
2022-09-17T09:21:49.265Z,1.80
2022-09-17T09:24:26.504Z,2.10
2022-09-17T09:27:18.163Z,3.10
2022-09-17T09:30:04.480Z,2.20
2022-09-17T09:33:01.802Z,2.40
2022-09-17T09:35:33.638Z,1.90
2022-09-17T09:41:18.270Z,1.90
2022-09-17T09:44:05.721Z,2.20
2022-09-17T09:47:13.394Z,2.20
2022-09-17T09:49:44.640Z,2.40
2022-09-17T09:52:32.988Z,2.00
2022-09-17T09:55:04.028Z,2.40
2022-09-17T09:57:43.368Z,2.30
2022-09-17T10:00:35.885Z,2.30
2022-09-17T10:03:20.677Z,1.80
2022-09-17T10:06:10.063Z,2.20
2022-09-17T10:08:40.676Z,2.60
2022-09-17T10:11:11.513Z,3.70
2022-09-17T10:13:40.812Z,2.60
2022-09-17T10:16:14.810Z,2.60
2022-09-17T10:18:43.711Z,2.20
2022-09-17T10:21:42.407Z,2.00
2022-09-17T10:24:34.126Z,1.80
2022-09-17T10:27:06.601Z,2.20
2022-09-17T10:29:34.979Z,2.00
2022-09-17T10:32:07.249Z,2.20
2022-09-17T10:34:35.627Z,2.00
2022-09-17T10:37:03.803Z,2.80
2022-09-17T10:39:35.049Z,2.60
2022-09-17T10:42:06.354Z,2.10
2022-09-17T10:44:36.925Z,1.90
2022-09-17T10:47:18.412Z,1.50
2022-09-17T10:50:08.198Z,1.90
2022-09-17T10:52:40.564Z,1.60
2022-09-17T10:55:33.732Z,1.80
2022-09-17T10:58:07.628Z,2.10
2022-09-17T11:00:38.877Z,2.10
2022-09-17T11:03:25.688Z,1.60
2022-09-17T11:06:35.346Z,2.00
2022-09-17T11:09:21.427Z,1.70
2022-09-17T11:12:00.970Z,1.40
2022-09-17T11:14:50.545Z,1.80
2022-09-17T11:17:52.508Z,1.90
2022-09-17T11:20:29.695Z,2.10
2022-09-17T11:23:32.068Z,2.20
2022-09-17T11:26:36.391Z,2.10
2022-09-17T11:29:44.602Z,2.30
2022-09-17T11:32:21.480Z,2.10
2022-09-17T11:35:09.421Z,2.30
2022-09-17T11:38:20.600Z,2.20
2022-09-17T11:41:11.651Z,2.10
2022-09-17T11:43:49.079Z,2.20
2022-09-17T11:46:33.508Z,2.60
2022-09-17T11:49:07.259Z,2.10
2022-09-17T11:51:48.210Z,2.20
2022-09-17T11:54:34.236Z,2.20
2022-09-17T11:57:27.763Z,2.00
2022-09-17T12:00:15.106Z,2.00
2022-09-17T12:03:32.238Z,2.10
2022-09-17T12:06:06.762Z,2.00
2022-09-17T12:08:40.977Z,2.00
2022-09-17T12:11:15.501Z,2.10
2022-09-17T12:13:48.747Z,2.40
2022-09-17T12:16:31.690Z,2.10
2022-09-17T12:19:23.847Z,2.00
2022-09-17T12:24:28.517Z,1.90
2022-09-17T12:27:21.024Z,2.40
2022-09-17T12:30:07.203Z,1.80
2022-09-17T12:33:16.367Z,2.00
2022-09-17T12:36:25.704Z,1.90
2022-09-17T12:39:13.519Z,1.80
2022-09-17T12:42:04.959Z,1.80
2022-09-17T12:45:03.850Z,2.10
2022-09-17T12:47:53.529Z,2.00
2022-09-17T12:50:43.313Z,2.50
2022-09-17T12:53:47.003Z,2.10
2022-09-17T12:56:42.716Z,1.80
2022-09-17T12:59:20.535Z,1.70
2022-09-17T13:01:52.773Z,2.00
2022-09-17T13:05:00.555Z,2.20
2022-09-17T13:07:53.802Z,3.20
2022-09-17T13:10:49.692Z,2.20
2022-09-17T13:13:28.515Z,2.10
2022-09-17T13:16:14.373Z,2.20
2022-09-17T13:19:16.159Z,1.90
2022-09-17T13:22:01.235Z,2.10
2022-09-17T13:24:31.453Z,1.90
2022-09-17T13:27:02.600Z,2.30
2022-09-17T13:29:46.242Z,2.30
2022-09-17T13:32:32.744Z,2.30
2022-09-17T13:35:07.162Z,2.10
2022-09-17T13:37:37.785Z,2.40
2022-09-17T13:40:22.592Z,2.30
2022-09-17T13:43:07.300Z,2.40
2022-09-17T13:46:01.289Z,1.90
2022-09-17T13:48:32.886Z,2.40
2022-09-17T13:51:35.021Z,2.30
2022-09-17T13:54:05.651Z,1.70
2022-09-17T13:56:49.902Z,1.80
2022-09-17T13:59:27.890Z,2.00
2022-09-17T14:01:55.874Z,2.20
2022-09-17T14:04:47.600Z,2.00
2022-09-17T14:07:21.819Z,1.80
2022-09-17T14:09:58.183Z,1.80
2022-09-17T14:12:41.613Z,2.00
2022-09-17T14:15:32.519Z,1.90
2022-09-17T14:18:02.958Z,2.10
2022-09-17T14:20:34.704Z,2.60
2022-09-17T14:25:51.634Z,2.80
2022-09-17T14:28:48.259Z,2.90
2022-09-17T14:31:22.259Z,2.60
2022-09-17T14:33:50.460Z,2.90
2022-09-17T14:36:20.901Z,2.80
2022-09-17T14:38:56.025Z,3.90
2022-09-17T14:41:35.765Z,3.70
2022-09-17T14:44:09.676Z,3.30
2022-09-17T14:47:02.703Z,3.10
2022-09-17T14:49:35.546Z,3.20
2022-09-17T14:52:30.727Z,4.00
2022-09-17T14:55:20.097Z,3.70
2022-09-17T14:58:02.808Z,4.30
2022-09-17T15:00:37.228Z,4.00
2022-09-17T15:03:06.495Z,3.90
2022-09-17T15:05:40.953Z,3.50
2022-09-17T15:08:16.798Z,3.40
2022-09-17T15:10:53.430Z,3.80
2022-09-17T15:13:29.227Z,3.80
2022-09-17T15:16:23.975Z,3.60
2022-09-17T15:18:58.758Z,4.30
2022-09-17T15:21:36.245Z,4.10
2022-09-17T15:24:21.212Z,3.90
2022-09-17T15:26:53.715Z,3.90
2022-09-17T15:29:26.161Z,4.20
2022-09-17T15:31:54.603Z,4.20
2022-09-17T15:34:23.227Z,3.50
2022-09-17T15:37:19.048Z,3.60
2022-09-17T15:39:53.381Z,3.70
2022-09-17T15:42:29.218Z,4.50
2022-09-17T15:45:20.127Z,4.40
2022-09-17T15:47:58.562Z,4.10
2022-09-17T15:50:54.247Z,4.20
2022-09-17T15:53:25.280Z,3.50
2022-09-17T15:56:11.280Z,4.20
2022-09-17T15:58:42.034Z,4.30
2022-09-17T16:01:15.758Z,4.90
2022-09-17T16:03:44.630Z,4.90
2022-09-17T16:06:18.544Z,4.90
2022-09-17T16:08:54.954Z,5.40
2022-09-17T16:11:28.407Z,5.90
2022-09-17T16:13:58.412Z,5.30
2022-09-17T16:16:34.338Z,5.70
2022-09-17T16:19:04.586Z,7.40
2022-09-17T16:21:32.965Z,6.00
2022-09-17T16:24:01.489Z,6.30
2022-09-17T16:26:32.491Z,5.80
2022-09-17T16:29:05.888Z,4.50
2022-09-17T16:31:34.614Z,3.70
2022-09-17T16:34:02.838Z,4.00
2022-09-17T16:36:32.366Z,4.80
2022-09-17T16:39:01.752Z,4.20
2022-09-17T16:41:30.234Z,4.40
2022-09-17T16:43:58.824Z,4.80
2022-09-17T16:46:27.263Z,4.80
2022-09-17T16:48:55.576Z,4.40
2022-09-17T16:51:23.646Z,4.70
2022-09-17T16:53:51.923Z,5.10
2022-09-17T16:56:19.995Z,4.90
2022-09-17T16:58:48.410Z,5.30
2022-09-17T17:01:16.905Z,30.00
2022-09-17T17:03:49.226Z,15.60
2022-09-17T17:06:21.907Z,12.30
2022-09-17T17:08:50.180Z,9.40
2022-09-17T17:11:18.558Z,21.20
2022-09-17T17:13:46.632Z,17.80
2022-09-17T17:16:15.618Z,20.80
2022-09-17T17:18:44.941Z,18.70
2022-09-17T17:21:14.434Z,19.60
2022-09-17T17:23:44.141Z,18.90
2022-09-17T17:26:12.209Z,19.20
2022-09-17T17:28:40.281Z,18.10
2022-09-17T17:31:08.582Z,14.20
2022-09-17T17:33:36.733Z,12.70
2022-09-17T17:36:08.334Z,11.30
2022-09-17T17:38:37.499Z,8.70
2022-09-17T17:41:14.465Z,7.30
2022-09-17T17:43:45.055Z,8.00
2022-09-17T17:46:15.952Z,7.40
2022-09-17T17:48:45.731Z,6.30
2022-09-17T17:51:16.092Z,6.80
2022-09-17T17:53:45.263Z,6.80
2022-09-17T17:56:13.783Z,7.10
2022-09-17T17:58:41.917Z,8.20
2022-09-17T18:01:20.570Z,7.30
2022-09-17T18:03:49.530Z,7.10
2022-09-17T18:06:17.584Z,7.30
2022-09-17T18:08:45.601Z,7.30
2022-09-17T18:11:13.851Z,7.00
2022-09-17T18:13:42.235Z,7.00
2022-09-17T18:16:12.899Z,7.30
2022-09-17T18:18:44.820Z,8.20
2022-09-17T18:21:17.089Z,9.30
2022-09-17T18:23:46.031Z,8.40
2022-09-17T18:26:19.785Z,7.80
2022-09-17T18:28:48.485Z,8.40
2022-09-17T18:31:27.181Z,8.30
2022-09-17T18:33:57.928Z,8.00
2022-09-17T18:36:28.460Z,8.00
2022-09-17T18:39:56.381Z,8.60
2022-09-17T18:41:50.098Z,8.90
2022-09-17T18:44:20.931Z,9.50
2022-09-17T18:46:50.359Z,9.90
2022-09-17T18:49:18.817Z,11.60
2022-09-17T18:51:47.092Z,8.90
2022-09-17T18:54:15.192Z,8.10
2022-09-17T18:56:43.441Z,7.80
2022-09-17T18:59:11.920Z,13.20
2022-09-17T19:01:40.165Z,12.20
2022-09-17T19:04:08.679Z,9.90
2022-09-17T19:06:36.855Z,8.60
2022-09-17T19:09:05.929Z,14.90
2022-09-17T19:11:36.889Z,11.50
2022-09-17T19:14:05.163Z,13.70
2022-09-17T19:16:33.335Z,11.00
2022-09-17T19:19:02.144Z,11.60
2022-09-17T19:21:30.299Z,9.90
2022-09-17T19:23:58.368Z,9.40
2022-09-17T19:26:27.758Z,9.30
2022-09-17T19:28:58.126Z,9.60
2022-09-17T19:31:27.517Z,8.50
2022-09-17T19:33:58.798Z,9.20
2022-09-17T19:36:27.121Z,9.20
2022-09-17T19:38:56.645Z,8.60
2022-09-17T19:41:25.107Z,9.30
2022-09-17T19:43:57.483Z,9.40
2022-09-17T19:46:26.632Z,8.90
2022-09-17T19:48:57.423Z,9.00
2022-09-17T19:51:29.695Z,8.20
2022-09-17T19:53:58.470Z,8.30
2022-09-17T19:56:28.148Z,9.20
2022-09-17T19:58:57.073Z,8.50
2022-09-17T20:01:26.012Z,7.40
2022-09-17T20:03:56.336Z,7.90
2022-09-17T20:06:29.239Z,7.80
2022-09-17T20:09:01.768Z,8.60
2022-09-17T20:11:32.408Z,8.50
2022-09-17T20:14:07.002Z,8.60
2022-09-17T20:16:40.039Z,8.40
2022-09-17T20:19:15.538Z,8.70
2022-09-17T20:21:48.432Z,9.40
2022-09-17T20:24:23.023Z,9.80
2022-09-17T20:26:57.712Z,8.80
2022-09-17T20:29:30.524Z,9.00
2022-09-17T20:32:01.191Z,9.60
2022-09-17T20:34:29.361Z,8.80
2022-09-17T20:37:12.698Z,9.40
2022-09-17T20:39:47.469Z,8.70
2022-09-17T20:42:15.591Z,8.70
2022-09-17T20:44:47.486Z,9.40
2022-09-17T20:47:15.624Z,9.00
2022-09-17T20:49:50.454Z,9.20
2022-09-17T20:52:21.731Z,9.10
2022-09-17T20:54:49.976Z,8.40
2022-09-17T20:57:18.867Z,8.50
2022-09-17T20:59:53.757Z,9.00
2022-09-17T21:02:22.478Z,8.90
2022-09-17T21:05:00.502Z,9.00
2022-09-17T21:07:33.377Z,9.00
2022-09-17T21:10:02.452Z,8.70
2022-09-17T21:12:30.541Z,9.00
2022-09-17T21:14:58.918Z,8.80
2022-09-17T21:17:27.092Z,8.50
2022-09-17T21:20:00.813Z,9.00
2022-09-17T21:22:30.300Z,8.30
2022-09-17T21:24:59.702Z,10.40
2022-09-17T21:27:31.692Z,9.00
2022-09-17T21:29:59.723Z,9.10
2022-09-17T21:32:27.742Z,9.10
2022-09-17T21:34:55.732Z,9.50
2022-09-17T21:37:23.951Z,9.20
2022-09-17T21:39:52.057Z,8.90
2022-09-17T21:42:20.299Z,9.50
2022-09-17T21:44:48.479Z,10.20
2022-09-17T21:47:16.537Z,9.20
2022-09-17T21:49:44.718Z,9.50
2022-09-17T21:52:12.994Z,10.00
2022-09-17T21:54:41.066Z,9.10
2022-09-17T21:57:09.137Z,9.80
2022-09-17T21:59:37.212Z,9.40
2022-09-17T22:02:06.668Z,10.70
2022-09-17T22:04:35.194Z,9.80
2022-09-17T22:07:03.778Z,8.70
2022-09-17T22:09:31.849Z,10.40
2022-09-17T22:12:01.559Z,10.60
2022-09-17T22:14:29.630Z,9.60
2022-09-17T22:16:59.619Z,10.00
2022-09-17T22:19:29.152Z,10.00
2022-09-17T22:21:57.327Z,11.30
2022-09-17T22:24:26.933Z,9.70
2022-09-17T22:26:58.231Z,10.00
2022-09-17T22:29:31.829Z,10.00
2022-09-17T22:31:59.953Z,9.90
2022-09-17T22:34:29.971Z,10.30
2022-09-17T22:36:59.272Z,8.70
2022-09-17T22:39:27.444Z,10.10
2022-09-17T22:41:57.359Z,10.70
2022-09-17T22:44:26.370Z,10.40
2022-09-17T22:46:54.644Z,10.20
2022-09-17T22:49:22.904Z,9.90
2022-09-17T22:51:51.180Z,10.70
2022-09-17T22:54:19.850Z,10.10
2022-09-17T22:56:48.967Z,9.90
2022-09-17T22:59:18.477Z,9.70
2022-09-17T23:01:47.290Z,9.80
2022-09-17T23:04:15.736Z,10.80
2022-09-17T23:06:43.843Z,10.10
2022-09-17T23:09:13.962Z,9.80
2022-09-17T23:11:42.158Z,9.60
2022-09-17T23:14:13.151Z,9.50
2022-09-17T23:16:46.947Z,9.60
2022-09-17T23:19:19.089Z,9.30
2022-09-17T23:21:47.393Z,9.70
2022-09-17T23:24:19.455Z,9.10
2022-09-17T23:26:48.245Z,8.10
2022-09-17T23:29:20.619Z,8.70
2022-09-17T23:31:49.105Z,8.90
2022-09-17T23:34:24.030Z,8.20
2022-09-17T23:36:52.104Z,9.00
2022-09-17T23:39:20.172Z,7.80
2022-09-17T23:41:48.449Z,8.10
2022-09-17T23:44:16.725Z,7.20
2022-09-17T23:46:46.775Z,6.80
2022-09-17T23:49:16.149Z,8.10
2022-09-17T23:51:45.410Z,6.70
2022-09-17T23:54:13.826Z,7.00
2022-09-17T23:56:41.869Z,7.40
2022-09-17T23:59:11.530Z,7.70
